createdAt,value
2018-09-20T00:00:16.577Z,19.86
2018-09-20T00:05:12.943Z,19.85
2018-09-20T00:10:09.110Z,19.86
2018-09-20T00:15:05.256Z,19.92
2018-09-20T00:20:01.448Z,19.91
2018-09-20T00:24:58.269Z,19.91
2018-09-20T00:29:53.760Z,19.66
2018-09-20T00:34:50.542Z,19.56
2018-09-20T00:39:46.229Z,19.49
2018-09-20T00:44:42.142Z,19.47
2018-09-20T00:49:37.990Z,19.40
2018-09-20T00:54:33.894Z,19.24
2018-09-20T00:59:31.174Z,19.12
2018-09-20T01:04:26.735Z,18.99
2018-09-20T01:09:22.560Z,19.08
2018-09-20T01:14:18.695Z,18.96
2018-09-20T01:19:15.458Z,18.60
2018-09-20T01:24:11.565Z,18.56
2018-09-20T01:29:08.553Z,18.53
2018-09-20T01:34:03.934Z,18.68
2018-09-20T01:39:00.094Z,18.81
2018-09-20T01:43:56.076Z,19.00
2018-09-20T01:48:51.941Z,18.98
2018-09-20T01:53:48.662Z,18.88
2018-09-20T01:58:44.328Z,18.86
2018-09-20T02:03:40.398Z,18.83
2018-09-20T02:08:35.956Z,18.74
2018-09-20T02:13:32.973Z,18.77
2018-09-20T02:18:28.934Z,18.92
2018-09-20T02:23:26.011Z,18.96
2018-09-20T02:28:21.427Z,18.95
2018-09-20T02:33:18.838Z,18.93
2018-09-20T02:38:14.547Z,18.95
2018-09-20T02:43:10.271Z,18.89
2018-09-20T02:48:06.281Z,18.88
2018-09-20T02:53:02.865Z,18.93
2018-09-20T02:57:58.283Z,18.88
2018-09-20T03:02:54.497Z,18.90
2018-09-20T03:07:50.311Z,18.86
2018-09-20T03:12:47.705Z,18.86
2018-09-20T03:17:43.422Z,18.74
2018-09-20T03:22:39.286Z,18.71
2018-09-20T03:27:36.099Z,18.62
2018-09-20T03:32:31.834Z,18.62
2018-09-20T03:37:28.617Z,18.60
2018-09-20T03:42:24.292Z,18.50
2018-09-20T03:52:23.317Z,18.50
2018-09-20T03:57:18.861Z,18.37
2018-09-20T04:02:15.044Z,18.25
2018-09-20T04:07:11.250Z,18.25
2018-09-20T04:12:08.193Z,18.33
2018-09-20T04:17:03.822Z,18.29
2018-09-20T04:22:00.126Z,18.23
2018-09-20T04:26:55.883Z,18.18
2018-09-20T04:31:51.736Z,18.13
2018-09-20T04:36:48.687Z,18.20
2018-09-20T04:41:44.161Z,18.20
2018-09-20T04:46:40.049Z,18.11
2018-09-20T04:51:36.007Z,17.98
2018-09-20T04:56:32.135Z,17.97
2018-09-20T05:01:27.856Z,17.95
2018-09-20T05:06:23.548Z,17.95
2018-09-20T05:11:19.399Z,17.92
2018-09-20T05:16:15.369Z,18.04
2018-09-20T05:21:12.431Z,18.01
2018-09-20T05:26:07.865Z,17.90
2018-09-20T05:31:03.859Z,17.95
2018-09-20T05:35:59.818Z,17.95
2018-09-20T05:40:55.896Z,17.92
2018-09-20T05:45:52.791Z,18.08
2018-09-20T05:50:48.596Z,18.08
2018-09-20T05:55:44.388Z,18.20
2018-09-20T06:00:40.365Z,18.23
2018-09-20T06:05:36.571Z,18.23
2018-09-20T06:10:32.576Z,18.18
2018-09-20T06:15:28.444Z,18.25
2018-09-20T06:20:24.494Z,18.19
2018-09-20T06:25:20.483Z,18.10
2018-09-20T06:30:16.585Z,18.33
2018-09-20T06:35:12.586Z,18.47
2018-09-20T06:40:08.641Z,18.68
2018-09-20T06:45:04.955Z,18.99
2018-09-20T06:50:01.025Z,19.14
2018-09-20T06:54:56.959Z,19.24
2018-09-20T06:59:53.013Z,19.41
2018-09-20T07:04:49.075Z,19.48
2018-09-20T07:09:45.389Z,19.52
2018-09-20T07:14:42.469Z,19.62
2018-09-20T07:19:38.406Z,19.74
2018-09-20T07:24:34.160Z,19.86
2018-09-20T07:29:30.152Z,20.04
2018-09-20T07:34:26.521Z,20.24
2018-09-20T07:39:22.599Z,20.43
2018-09-20T07:44:18.920Z,20.66
2018-09-20T07:49:15.230Z,20.87
2018-09-20T07:54:13.041Z,21.21
2018-09-20T07:59:09.111Z,21.45
2018-09-20T08:04:05.281Z,21.58
2018-09-20T08:09:01.380Z,21.67
2018-09-20T08:13:57.608Z,21.70
2018-09-20T08:18:53.906Z,21.64
2018-09-20T08:23:49.968Z,21.62
2018-09-20T08:28:46.073Z,21.60
2018-09-20T08:33:42.263Z,21.76
2018-09-20T08:38:38.491Z,21.93
2018-09-20T08:43:34.527Z,22.11
2018-09-20T08:48:30.555Z,22.20
2018-09-20T08:53:26.558Z,21.92
2018-09-20T08:58:22.543Z,21.67
2018-09-20T09:03:19.484Z,21.79
2018-09-20T09:08:15.185Z,22.04
2018-09-20T09:18:10.939Z,22.22
2018-09-20T09:23:08.146Z,22.26
2018-09-20T09:28:04.974Z,22.44
2018-09-20T09:33:01.635Z,22.72
2018-09-20T09:37:57.922Z,22.96
2018-09-20T09:42:54.334Z,23.20
2018-09-20T09:47:50.387Z,23.20
2018-09-20T09:52:47.573Z,23.28
2018-09-20T09:57:43.747Z,23.34
2018-09-20T10:02:40.421Z,23.47
2018-09-20T10:07:36.797Z,23.54
2018-09-20T10:12:34.240Z,23.77
2018-09-20T10:17:30.103Z,23.88
2018-09-20T10:22:26.285Z,24.03
2018-09-20T10:27:23.497Z,24.21
2018-09-20T10:32:19.485Z,24.60
2018-09-20T10:37:15.705Z,24.61
2018-09-20T10:42:11.981Z,24.60
2018-09-20T10:47:08.066Z,24.80
2018-09-20T10:52:05.085Z,24.48
2018-09-20T10:57:02.046Z,24.73
2018-09-20T11:01:58.140Z,24.91
2018-09-20T11:06:54.353Z,24.86
2018-09-20T11:11:51.650Z,24.88
2018-09-20T11:16:47.996Z,24.81
2018-09-20T11:21:44.147Z,24.70
2018-09-20T11:26:41.128Z,24.58
2018-09-20T11:31:37.219Z,24.99
2018-09-20T11:36:34.179Z,25.04
2018-09-20T11:41:31.158Z,25.01
2018-09-20T11:46:27.372Z,25.31
2018-09-20T11:51:23.806Z,25.22
2018-09-20T11:56:20.365Z,25.29
2018-09-20T12:01:17.437Z,25.75
2018-09-20T12:06:14.915Z,26.06
2018-09-20T12:11:10.204Z,25.87
2018-09-20T12:16:06.381Z,25.54
2018-09-20T12:21:01.665Z,25.36
2018-09-20T12:25:57.128Z,25.33
2018-09-20T12:30:52.530Z,25.28
2018-09-20T12:35:49.140Z,25.17
2018-09-20T12:40:45.800Z,25.29
2018-09-20T12:45:42.633Z,25.43
2018-09-20T12:50:38.281Z,25.31
2018-09-20T12:55:34.287Z,25.38
2018-09-20T13:00:30.462Z,25.40
2018-09-20T13:05:26.697Z,25.22
2018-09-20T13:10:22.832Z,25.28
2018-09-20T13:15:18.698Z,25.18
2018-09-20T13:20:14.580Z,25.32
2018-09-20T13:25:12.323Z,25.35
2018-09-20T13:30:08.116Z,25.41
2018-09-20T13:35:04.603Z,25.32
2018-09-20T13:40:01.830Z,25.36
2018-09-20T13:44:57.876Z,25.50
2018-09-20T13:49:55.598Z,25.66
2018-09-20T13:54:51.592Z,25.63
2018-09-20T13:59:47.676Z,25.40
2018-09-20T14:04:43.566Z,25.35
2018-09-20T14:09:40.577Z,25.33
2018-09-20T14:14:36.186Z,25.33
2018-09-20T14:19:32.045Z,25.07
2018-09-20T14:24:27.804Z,25.16
2018-09-20T14:29:23.739Z,25.29
2018-09-20T14:34:20.867Z,25.29
2018-09-20T14:39:16.890Z,25.13
2018-09-20T14:44:12.795Z,25.17
2018-09-20T14:49:09.734Z,25.16
2018-09-20T14:54:06.499Z,25.31
2018-09-20T14:59:02.361Z,25.33
2018-09-20T15:03:58.624Z,25.36
2018-09-20T15:08:54.878Z,25.36
2018-09-20T15:13:51.784Z,25.44
2018-09-20T15:18:47.408Z,25.33
2018-09-20T15:23:43.249Z,25.26
2018-09-20T15:28:39.552Z,25.26
2018-09-20T15:33:35.509Z,25.38
2018-09-20T15:38:31.675Z,25.17
2018-09-20T15:43:27.912Z,25.16
2018-09-20T15:48:23.909Z,25.14
2018-09-20T15:53:20.247Z,25.18
2018-09-20T15:58:17.314Z,25.10
2018-09-20T16:03:13.049Z,25.16
2018-09-20T16:08:09.083Z,25.06
2018-09-20T16:13:06.147Z,25.07
2018-09-20T16:18:01.895Z,25.06
2018-09-20T16:22:58.346Z,25.07
2018-09-20T16:27:54.284Z,25.01
2018-09-20T16:32:50.558Z,25.06
2018-09-20T16:37:47.147Z,24.93
2018-09-20T16:42:42.992Z,24.86
2018-09-20T16:47:38.825Z,24.61
2018-09-20T16:52:34.616Z,24.47
2018-09-20T16:57:30.431Z,24.36
2018-09-20T17:02:26.309Z,24.21
2018-09-20T17:07:23.383Z,24.14
2018-09-20T17:12:18.932Z,24.13
2018-09-20T17:17:16.116Z,24.02
2018-09-20T17:22:11.777Z,23.98
2018-09-20T17:27:07.622Z,23.95
2018-09-20T17:32:04.717Z,23.80
2018-09-20T17:37:01.735Z,23.68
2018-09-20T17:41:57.253Z,23.54
2018-09-20T17:46:53.210Z,23.40
2018-09-20T17:51:50.329Z,23.21
2018-09-20T17:56:46.357Z,23.09
2018-09-20T18:01:42.079Z,22.88
2018-09-20T18:06:38.093Z,22.76
2018-09-20T18:11:34.032Z,22.72
2018-09-20T18:16:32.225Z,22.48
2018-09-20T18:21:27.362Z,22.43
2018-09-20T18:26:23.193Z,22.30
2018-09-20T18:31:18.804Z,22.26
2018-09-20T18:36:15.171Z,22.28
2018-09-20T18:41:11.154Z,22.14
2018-09-20T18:46:07.117Z,22.11
2018-09-20T18:51:04.875Z,22.11
2018-09-20T18:56:00.955Z,22.18
2018-09-20T19:00:56.797Z,22.08
2018-09-20T19:05:53.074Z,21.93
2018-09-20T19:10:49.164Z,21.80
2018-09-20T19:15:46.121Z,21.73
2018-09-20T19:20:41.633Z,21.64
2018-09-20T19:25:37.558Z,21.57
2018-09-20T19:30:34.426Z,21.60
2018-09-20T19:35:29.753Z,21.22
2018-09-20T19:40:26.109Z,21.06
2018-09-20T19:45:23.289Z,21.09
2018-09-20T19:50:18.782Z,21.17
2018-09-20T19:55:14.586Z,21.11
2018-09-20T20:00:11.408Z,21.00
2018-09-20T20:05:07.319Z,20.99
2018-09-20T20:10:03.216Z,20.93
2018-09-20T20:15:00.099Z,21.03
2018-09-20T20:24:57.137Z,20.87
2018-09-20T20:29:53.626Z,20.82
2018-09-20T20:34:49.543Z,20.77
2018-09-20T20:39:45.388Z,20.77
2018-09-20T20:44:41.212Z,20.81
2018-09-20T20:49:37.996Z,20.78
2018-09-20T20:54:33.663Z,20.96
2018-09-20T20:59:30.499Z,20.92
2018-09-20T21:04:26.975Z,20.90
2018-09-20T21:09:23.769Z,20.95
2018-09-20T21:14:19.298Z,20.85
2018-09-20T21:19:15.143Z,20.82
2018-09-20T21:24:11.154Z,20.78
2018-09-20T21:29:07.053Z,20.74
2018-09-20T21:34:02.956Z,20.72
2018-09-20T21:39:00.047Z,20.67
2018-09-20T21:48:58.878Z,20.55
2018-09-20T21:53:55.028Z,20.52
2018-09-20T21:58:50.906Z,20.56
2018-09-20T22:03:46.947Z,20.55
2018-09-20T22:08:42.560Z,20.58
2018-09-20T22:13:40.129Z,20.55
2018-09-20T22:18:35.636Z,20.60
2018-09-20T22:23:32.537Z,20.63
2018-09-20T22:28:29.759Z,20.72
2018-09-20T22:33:25.373Z,20.82
2018-09-20T22:38:21.399Z,20.99
2018-09-20T22:43:18.327Z,21.03
2018-09-20T22:48:15.452Z,21.00
2018-09-20T22:53:11.027Z,21.05
2018-09-20T22:58:07.202Z,20.96
2018-09-20T23:03:03.168Z,20.96
2018-09-20T23:07:59.075Z,21.02
2018-09-20T23:12:56.231Z,20.95
2018-09-20T23:17:51.818Z,20.97
2018-09-20T23:22:49.142Z,20.96
2018-09-20T23:27:44.792Z,21.00
2018-09-20T23:32:40.640Z,20.95
2018-09-20T23:37:37.446Z,20.82
2018-09-20T23:42:32.994Z,20.84
2018-09-20T23:47:28.896Z,20.78
2018-09-20T23:52:24.973Z,20.80
2018-09-20T23:57:20.630Z,20.80
